N23SM FPST-FPPR
Flight info
| Callsign | N23SM |
|---|---|
| Flight time | 0h 36m |
| Altitude | 7000 |
| Route | SAGVI |
| Aircraft | DA42/L-SBDGRY/S |
Departure
| Time | 2026-04-29 21:45 |
|---|---|
| Airport | São Tomé International Airport (FPST) |
Arrival
| Time | 2026-04-29 22:21 |
|---|---|
| Airport | Principe Airport (FPPR) |
| Time | Latitude | Longitude | Altitude | Speed | Heading |
|---|---|---|---|---|---|
| 2026-04-29 21:26 | 0.37525 | 6.71266 | 25 ft | 0 kts | 201° |
| 2026-04-29 21:41 | 0.37528 | 6.71279 | 25 ft | 10 kts | 20° |
| 2026-04-29 21:41 | 0.37604 | 6.71273 | 25 ft | 15 kts | 14° |
| 2026-04-29 21:42 | 0.37728 | 6.71298 | 26 ft | 21 kts | 8° |
| 2026-04-29 21:42 | 0.37802 | 6.71223 | 26 ft | 18 kts | 279° |
| 2026-04-29 21:42 | 0.37833 | 6.71099 | 27 ft | 18 kts | 283° |
| 2026-04-29 21:42 | 0.37858 | 6.70977 | 29 ft | 18 kts | 275° |
| 2026-04-29 21:43 | 0.37876 | 6.70894 | 30 ft | 0 kts | 282° |
| 2026-04-29 21:43 | 0.37886 | 6.70879 | 30 ft | 4 kts | 88° |
| 2026-04-29 21:44 | 0.37832 | 6.71129 | 27 ft | 65 kts | 103° |
| 2026-04-29 21:44 | 0.37707 | 6.71662 | 94 ft | 85 kts | 105° |
| 2026-04-29 21:44 | 0.37594 | 6.72251 | 282 ft | 87 kts | 96° |
| 2026-04-29 21:44 | 0.37684 | 6.72832 | 545 ft | 84 kts | 68° |
| 2026-04-29 21:45 | 0.38045 | 6.73287 | 694 ft | 89 kts | 35° |
| 2026-04-29 21:45 | 0.38632 | 6.73508 | 906 ft | 92 kts | 18° |
| 2026-04-29 21:45 | 0.39278 | 6.73641 | 1167 ft | 96 kts | 355° |
| 2026-04-29 21:45 | 0.39895 | 6.73431 | 1475 ft | 93 kts | 321° |
| 2026-04-29 21:46 | 0.40375 | 6.73010 | 1769 ft | 95 kts | 327° |
| 2026-04-29 21:46 | 0.41031 | 6.72907 | 2061 ft | 96 kts | 13° |
| 2026-04-29 21:46 | 0.41593 | 6.73247 | 2343 ft | 95 kts | 44° |
| 2026-04-29 21:46 | 0.42098 | 6.73700 | 2568 ft | 103 kts | 44° |
| 2026-04-29 21:47 | 0.42634 | 6.74173 | 2837 ft | 103 kts | 43° |
| 2026-04-29 21:47 | 0.43177 | 6.74645 | 3113 ft | 103 kts | 43° |
| 2026-04-29 21:47 | 0.43725 | 6.75117 | 3377 ft | 104 kts | 42° |
| 2026-04-29 21:47 | 0.44271 | 6.75584 | 3643 ft | 104 kts | 42° |
| 2026-04-29 21:48 | 0.44813 | 6.76046 | 3888 ft | 104 kts | 43° |
| 2026-04-29 21:48 | 0.45364 | 6.76515 | 4145 ft | 104 kts | 43° |
| 2026-04-29 21:48 | 0.45920 | 6.76988 | 4390 ft | 105 kts | 43° |
| 2026-04-29 21:48 | 0.46475 | 6.77460 | 4653 ft | 105 kts | 43° |
| 2026-04-29 21:49 | 0.47030 | 6.77932 | 4910 ft | 104 kts | 44° |
| 2026-04-29 21:49 | 0.47582 | 6.78401 | 5169 ft | 104 kts | 44° |
| 2026-04-29 21:49 | 0.48130 | 6.78867 | 5436 ft | 103 kts | 44° |
| 2026-04-29 21:49 | 0.48678 | 6.79332 | 5707 ft | 103 kts | 44° |
| 2026-04-29 21:50 | 0.49221 | 6.79794 | 5973 ft | 102 kts | 44° |
| 2026-04-29 21:50 | 0.49763 | 6.80254 | 6224 ft | 102 kts | 45° |
| 2026-04-29 21:50 | 0.50302 | 6.80713 | 6491 ft | 101 kts | 45° |
| 2026-04-29 21:50 | 0.50838 | 6.81168 | 6736 ft | 101 kts | 45° |
| 2026-04-29 21:51 | 0.51376 | 6.81626 | 6987 ft | 102 kts | 46° |
| 2026-04-29 21:51 | 0.51966 | 6.82133 | 7023 ft | 122 kts | 46° |
| 2026-04-29 21:51 | 0.53412 | 6.83367 | 7024 ft | 147 kts | 44° |
| 2026-04-29 21:52 | 0.54208 | 6.84040 | 7027 ft | 152 kts | 44° |
| 2026-04-29 21:52 | 0.55011 | 6.84720 | 7025 ft | 155 kts | 44° |
| 2026-04-29 21:52 | 0.55847 | 6.85428 | 7027 ft | 156 kts | 44° |
| 2026-04-29 21:52 | 0.56665 | 6.86123 | 7029 ft | 157 kts | 44° |
| 2026-04-29 21:53 | 0.57501 | 6.86832 | 7029 ft | 158 kts | 44° |
| 2026-04-29 21:53 | 0.58341 | 6.87546 | 7028 ft | 158 kts | 44° |
| 2026-04-29 21:53 | 0.59181 | 6.88260 | 7031 ft | 159 kts | 44° |
| 2026-04-29 21:53 | 0.60022 | 6.88975 | 7032 ft | 159 kts | 44° |
| 2026-04-29 21:54 | 0.60865 | 6.89690 | 7034 ft | 158 kts | 44° |
| 2026-04-29 21:54 | 0.61701 | 6.90400 | 7037 ft | 158 kts | 44° |
| 2026-04-29 21:54 | 0.62540 | 6.91113 | 7035 ft | 158 kts | 44° |
| 2026-04-29 21:54 | 0.63380 | 6.91827 | 7036 ft | 159 kts | 44° |
| 2026-04-29 21:55 | 0.64223 | 6.92544 | 7039 ft | 159 kts | 44° |
| 2026-04-29 21:55 | 0.65066 | 6.93260 | 7039 ft | 159 kts | 44° |
| 2026-04-29 21:55 | 0.65911 | 6.93978 | 7040 ft | 159 kts | 44° |
| 2026-04-29 21:55 | 0.66754 | 6.94695 | 7039 ft | 159 kts | 44° |
| 2026-04-29 21:56 | 0.67594 | 6.95409 | 7041 ft | 159 kts | 44° |
| 2026-04-29 21:56 | 0.68436 | 6.96125 | 7040 ft | 159 kts | 44° |
| 2026-04-29 21:56 | 0.69275 | 6.96838 | 7040 ft | 158 kts | 44° |
| 2026-04-29 21:56 | 0.70104 | 6.97542 | 7041 ft | 159 kts | 44° |
| 2026-04-29 21:57 | 0.70946 | 6.98258 | 7041 ft | 159 kts | 44° |
| 2026-04-29 21:57 | 0.71788 | 6.98973 | 7041 ft | 159 kts | 44° |
| 2026-04-29 21:57 | 0.72631 | 6.99689 | 7041 ft | 159 kts | 44° |
| 2026-04-29 21:57 | 0.73472 | 7.00405 | 7040 ft | 159 kts | 44° |
| 2026-04-29 21:58 | 0.74312 | 7.01119 | 7038 ft | 159 kts | 44° |
| 2026-04-29 21:58 | 0.75153 | 7.01834 | 7039 ft | 159 kts | 44° |
| 2026-04-29 21:58 | 0.75995 | 7.02549 | 7040 ft | 159 kts | 44° |
| 2026-04-29 21:58 | 0.76836 | 7.03264 | 7041 ft | 159 kts | 44° |
| 2026-04-29 21:59 | 0.77676 | 7.03978 | 7040 ft | 159 kts | 44° |
| 2026-04-29 21:59 | 0.78516 | 7.04692 | 7040 ft | 158 kts | 44° |
| 2026-04-29 21:59 | 0.79354 | 7.05405 | 7040 ft | 158 kts | 44° |
| 2026-04-29 21:59 | 0.80192 | 7.06117 | 7040 ft | 158 kts | 44° |
| 2026-04-29 22:00 | 0.81030 | 7.06829 | 7039 ft | 158 kts | 44° |
| 2026-04-29 22:00 | 0.81867 | 7.07540 | 7039 ft | 158 kts | 44° |
| 2026-04-29 22:00 | 0.82705 | 7.08252 | 7040 ft | 158 kts | 44° |
| 2026-04-29 22:00 | 0.83543 | 7.08965 | 7040 ft | 158 kts | 44° |
| 2026-04-29 22:01 | 0.84383 | 7.09679 | 7041 ft | 159 kts | 44° |
| 2026-04-29 22:01 | 0.85224 | 7.10393 | 7040 ft | 159 kts | 44° |
| 2026-04-29 22:01 | 0.86065 | 7.11108 | 7041 ft | 159 kts | 44° |
| 2026-04-29 22:01 | 0.86907 | 7.11824 | 7040 ft | 159 kts | 44° |
| 2026-04-29 22:02 | 0.87746 | 7.12537 | 7040 ft | 159 kts | 44° |
| 2026-04-29 22:02 | 0.88588 | 7.13253 | 7041 ft | 159 kts | 44° |
| 2026-04-29 22:02 | 0.89430 | 7.13968 | 7040 ft | 159 kts | 44° |
| 2026-04-29 22:02 | 0.90271 | 7.14683 | 7040 ft | 159 kts | 44° |
| 2026-04-29 22:03 | 0.91112 | 7.15398 | 7039 ft | 159 kts | 44° |
| 2026-04-29 22:03 | 0.91954 | 7.16114 | 7038 ft | 159 kts | 44° |
| 2026-04-29 22:03 | 0.92796 | 7.16830 | 7038 ft | 159 kts | 44° |
| 2026-04-29 22:03 | 0.93638 | 7.17545 | 7038 ft | 159 kts | 44° |
| 2026-04-29 22:04 | 0.94476 | 7.18258 | 7040 ft | 158 kts | 44° |
| 2026-04-29 22:04 | 0.95316 | 7.18972 | 7039 ft | 158 kts | 44° |
| 2026-04-29 22:04 | 0.96148 | 7.19679 | 7040 ft | 158 kts | 44° |
| 2026-04-29 22:04 | 0.96976 | 7.20383 | 6965 ft | 160 kts | 44° |
| 2026-04-29 22:05 | 0.97829 | 7.21113 | 6604 ft | 159 kts | 44° |
| 2026-04-29 22:05 | 0.98660 | 7.21819 | 6258 ft | 158 kts | 43° |
| 2026-04-29 22:05 | 1.00334 | 7.23238 | 5529 ft | 158 kts | 44° |
| 2026-04-29 22:06 | 1.01172 | 7.23951 | 5169 ft | 159 kts | 43° |
| 2026-04-29 22:06 | 1.02014 | 7.24667 | 4814 ft | 159 kts | 42° |
| 2026-04-29 22:06 | 1.02862 | 7.25387 | 4449 ft | 160 kts | 42° |
| 2026-04-29 22:06 | 1.03716 | 7.26112 | 4084 ft | 161 kts | 43° |
| 2026-04-29 22:07 | 1.04573 | 7.26842 | 3722 ft | 162 kts | 43° |
| 2026-04-29 22:07 | 1.05432 | 7.27572 | 3365 ft | 162 kts | 41° |
| 2026-04-29 22:07 | 1.06290 | 7.28301 | 3008 ft | 162 kts | 41° |
| 2026-04-29 22:07 | 1.07112 | 7.28998 | 2923 ft | 146 kts | 42° |
| 2026-04-29 22:08 | 1.07923 | 7.29688 | 2602 ft | 159 kts | 42° |
| 2026-04-29 22:08 | 1.08787 | 7.30428 | 2287 ft | 167 kts | 42° |
| 2026-04-29 22:08 | 1.09681 | 7.31189 | 2008 ft | 168 kts | 41° |
| 2026-04-29 22:08 | 1.10545 | 7.31920 | 2006 ft | 159 kts | 41° |
| 2026-04-29 22:09 | 1.11459 | 7.32520 | 2000 ft | 157 kts | 20° |
| 2026-04-29 22:09 | 1.12494 | 7.32838 | 2006 ft | 155 kts | 16° |
| 2026-04-29 22:09 | 1.13535 | 7.33120 | 2005 ft | 155 kts | 15° |
| 2026-04-29 22:09 | 1.14583 | 7.33408 | 2004 ft | 160 kts | 15° |
| 2026-04-29 22:10 | 1.15660 | 7.33705 | 2112 ft | 158 kts | 15° |
| 2026-04-29 22:10 | 1.16687 | 7.33991 | 2349 ft | 149 kts | 15° |
| 2026-04-29 22:10 | 1.17654 | 7.34260 | 2591 ft | 143 kts | 15° |
| 2026-04-29 22:10 | 1.18601 | 7.34524 | 2827 ft | 140 kts | 15° |
| 2026-04-29 22:11 | 1.19540 | 7.34782 | 3001 ft | 144 kts | 15° |
| 2026-04-29 22:11 | 1.20557 | 7.35059 | 3000 ft | 156 kts | 15° |
| 2026-04-29 22:11 | 1.21628 | 7.35353 | 2998 ft | 162 kts | 15° |
| 2026-04-29 22:11 | 1.22728 | 7.35656 | 2998 ft | 165 kts | 15° |
| 2026-04-29 22:12 | 1.23842 | 7.35967 | 3000 ft | 167 kts | 16° |
| 2026-04-29 22:12 | 1.24965 | 7.36275 | 3000 ft | 168 kts | 15° |
| 2026-04-29 22:12 | 1.26101 | 7.36585 | 3003 ft | 170 kts | 15° |
| 2026-04-29 22:12 | 1.27241 | 7.36897 | 3003 ft | 170 kts | 15° |
| 2026-04-29 22:13 | 1.28391 | 7.37214 | 3002 ft | 172 kts | 15° |
| 2026-04-29 22:13 | 1.29546 | 7.37533 | 3002 ft | 173 kts | 15° |
| 2026-04-29 22:13 | 1.30704 | 7.37856 | 3005 ft | 173 kts | 15° |
| 2026-04-29 22:13 | 1.31864 | 7.38180 | 3000 ft | 173 kts | 15° |
| 2026-04-29 22:14 | 1.33012 | 7.38498 | 3005 ft | 172 kts | 16° |
| 2026-04-29 22:14 | 1.34161 | 7.38814 | 3005 ft | 171 kts | 15° |
| 2026-04-29 22:14 | 1.35309 | 7.39130 | 3000 ft | 171 kts | 15° |
| 2026-04-29 22:14 | 1.36446 | 7.39445 | 3001 ft | 169 kts | 15° |
| 2026-04-29 22:15 | 1.37563 | 7.39750 | 3000 ft | 167 kts | 12° |
| 2026-04-29 22:15 | 1.38722 | 7.39882 | 3000 ft | 167 kts | 3° |
| 2026-04-29 22:15 | 1.39887 | 7.39968 | 3001 ft | 169 kts | 4° |
| 2026-04-29 22:15 | 1.41057 | 7.40053 | 3004 ft | 168 kts | 4° |
| 2026-04-29 22:16 | 1.42228 | 7.40140 | 3000 ft | 169 kts | 4° |
| 2026-04-29 22:16 | 1.43400 | 7.40224 | 3001 ft | 169 kts | 3° |
| 2026-04-29 22:16 | 1.44579 | 7.40312 | 3001 ft | 170 kts | 4° |
| 2026-04-29 22:16 | 1.45762 | 7.40400 | 3006 ft | 171 kts | 4° |
| 2026-04-29 22:17 | 1.46961 | 7.40485 | 2999 ft | 172 kts | 4° |
| 2026-04-29 22:17 | 1.48153 | 7.40565 | 3002 ft | 171 kts | 3° |
| 2026-04-29 22:17 | 1.49339 | 7.40647 | 3002 ft | 171 kts | 4° |
| 2026-04-29 22:17 | 1.50525 | 7.40728 | 3000 ft | 171 kts | 4° |
| 2026-04-29 22:18 | 1.51710 | 7.40808 | 2995 ft | 171 kts | 3° |
| 2026-04-29 22:18 | 1.52888 | 7.40893 | 2995 ft | 170 kts | 4° |
| 2026-04-29 22:18 | 1.54065 | 7.40973 | 2995 ft | 169 kts | 3° |
| 2026-04-29 22:18 | 1.55232 | 7.41054 | 2993 ft | 165 kts | 4° |
| 2026-04-29 22:19 | 1.56328 | 7.41132 | 2998 ft | 153 kts | 4° |
| 2026-04-29 22:19 | 1.57365 | 7.41207 | 2996 ft | 145 kts | 4° |
| 2026-04-29 22:19 | 1.58351 | 7.41278 | 3001 ft | 141 kts | 3° |
| 2026-04-29 22:19 | 1.59336 | 7.41366 | 3004 ft | 145 kts | 4° |
| 2026-04-29 22:20 | 1.60400 | 7.41329 | 2790 ft | 161 kts | 348° |
| 2026-04-29 22:20 | 1.61506 | 7.41264 | 2624 ft | 161 kts | 356° |
| 2026-04-29 22:20 | 1.62572 | 7.41205 | 2376 ft | 141 kts | 358° |
| 2026-04-29 22:20 | 1.63483 | 7.41242 | 2204 ft | 126 kts | 2° |
| 2026-04-29 22:21 | 1.64377 | 7.41165 | 1600 ft | 119 kts | 348° |
| 2026-04-29 22:21 | 1.65147 | 7.41079 | 880 ft | 109 kts | 358° |
| 2026-04-29 22:21 | 1.65842 | 7.41103 | 577 ft | 81 kts | 1° |
| 2026-04-29 22:21 | 1.66247 | 7.41103 | 571 ft | 34 kts | 359° |
| 2026-04-29 22:22 | 1.66419 | 7.41106 | 573 ft | 14 kts | 8° |
| 2026-04-29 22:22 | 1.66513 | 7.41107 | 576 ft | 7 kts | 47° |
| 2026-04-29 22:22 | 1.66484 | 7.41112 | 575 ft | 11 kts | 182° |
| 2026-04-29 22:22 | 1.66462 | 7.41112 | 575 ft | 0 kts | 179° |
| 2026-04-29 22:23 | 1.66461 | 7.41112 | 575 ft | 1 kts | 179° |